createdAt,value
2022-12-04T00:00:11.116Z,93.31
2022-12-04T00:01:11.086Z,93.31
2022-12-04T00:02:11.065Z,93.41
2022-12-04T00:03:11.065Z,93.31
2022-12-04T00:04:11.153Z,93.31
2022-12-04T00:05:11.034Z,93.31
2022-12-04T00:06:11.011Z,93.41
2022-12-04T00:07:11.000Z,93.41
2022-12-04T00:08:11.090Z,93.41
2022-12-04T00:09:10.971Z,93.41
2022-12-04T00:10:11.015Z,93.41
2022-12-04T00:11:10.951Z,93.52
2022-12-04T00:12:10.943Z,93.52
2022-12-04T00:13:10.947Z,93.41
2022-12-04T00:14:10.964Z,93.52
2022-12-04T00:15:27.002Z,93.63
2022-12-04T00:16:11.939Z,93.52
2022-12-04T00:17:10.897Z,93.67
2022-12-04T00:18:10.892Z,93.67
2022-12-04T00:19:10.871Z,93.77
2022-12-04T00:20:10.884Z,93.88
2022-12-04T00:21:10.835Z,93.84
2022-12-04T00:22:10.839Z,93.84
2022-12-04T00:23:10.846Z,93.84
2022-12-04T00:24:10.817Z,93.84
2022-12-04T00:25:10.796Z,93.84
2022-12-04T00:26:10.848Z,93.84
2022-12-04T00:27:10.777Z,93.73
2022-12-04T00:28:10.779Z,93.77
2022-12-04T00:29:10.818Z,93.88
2022-12-04T00:30:10.754Z,93.88
2022-12-04T00:31:10.756Z,93.98
2022-12-04T00:32:10.777Z,94.09
2022-12-04T00:33:10.710Z,94.19
2022-12-04T00:34:10.707Z,94.19
2022-12-04T00:35:10.716Z,94.40
2022-12-04T00:36:10.683Z,94.61
2022-12-04T00:37:10.667Z,94.71
2022-12-04T00:38:10.647Z,94.71
2022-12-04T00:39:10.660Z,94.71
2022-12-04T00:40:10.664Z,94.82
2022-12-04T00:41:10.624Z,94.92
2022-12-04T00:42:10.632Z,94.92
2022-12-04T00:43:10.601Z,94.82
2022-12-04T00:44:10.621Z,94.71
2022-12-04T00:45:10.560Z,94.61
2022-12-04T00:46:10.732Z,94.46
2022-12-04T00:47:10.538Z,94.35
2022-12-04T00:48:10.527Z,94.25
2022-12-04T00:49:10.561Z,94.29
2022-12-04T00:50:10.510Z,94.15
2022-12-04T00:51:10.518Z,94.15
2022-12-04T00:52:10.541Z,94.19
2022-12-04T00:53:10.488Z,94.29
2022-12-04T00:54:10.482Z,94.29
2022-12-04T00:55:10.456Z,94.29
2022-12-04T00:56:10.471Z,94.40
2022-12-04T00:57:10.468Z,94.50
2022-12-04T00:58:10.432Z,94.61
2022-12-04T00:59:10.399Z,94.61
2022-12-04T01:00:10.409Z,94.50
2022-12-04T01:01:10.540Z,94.50
2022-12-04T01:02:10.370Z,94.50
2022-12-04T01:03:10.480Z,94.46
2022-12-04T01:04:10.341Z,94.46
2022-12-04T01:05:10.353Z,94.35
2022-12-04T01:06:10.343Z,94.35
2022-12-04T01:07:10.346Z,94.35
2022-12-04T01:08:10.367Z,94.35
2022-12-04T01:09:10.321Z,94.25
2022-12-04T01:10:10.285Z,94.15
2022-12-04T01:11:10.272Z,94.04
2022-12-04T01:12:10.273Z,94.04
2022-12-04T01:13:10.254Z,94.04
2022-12-04T01:14:10.397Z,94.04
2022-12-04T01:15:10.237Z,94.19
2022-12-04T01:16:10.360Z,94.40
2022-12-04T01:17:10.212Z,94.50
2022-12-04T01:18:10.266Z,94.61
2022-12-04T01:19:10.188Z,94.61
2022-12-04T01:20:10.153Z,94.61
2022-12-04T01:21:10.154Z,94.61
2022-12-04T01:22:10.163Z,94.71
2022-12-04T01:23:10.147Z,94.71
2022-12-04T01:24:10.163Z,94.71
2022-12-04T01:25:10.113Z,94.71
2022-12-04T01:26:10.083Z,94.61
2022-12-04T01:27:10.108Z,94.71
2022-12-04T01:28:10.064Z,94.82
2022-12-04T01:29:10.087Z,94.92
2022-12-04T01:30:10.075Z,94.92
2022-12-04T01:31:10.109Z,94.92
2022-12-04T01:32:10.088Z,95.03
2022-12-04T01:33:10.005Z,95.03
2022-12-04T01:34:10.018Z,95.13
2022-12-04T01:35:10.028Z,95.13
2022-12-04T01:36:10.014Z,95.23
2022-12-04T01:37:09.966Z,95.34
2022-12-04T01:38:09.969Z,95.44
2022-12-04T01:39:09.956Z,95.55
2022-12-04T01:40:09.934Z,95.55
2022-12-04T01:41:09.969Z,95.55
2022-12-04T01:42:09.920Z,95.55
2022-12-04T01:43:09.917Z,95.55
2022-12-04T01:44:09.904Z,95.55
2022-12-04T01:45:09.913Z,95.44
2022-12-04T01:46:10.000Z,95.44
2022-12-04T01:47:09.878Z,95.23
2022-12-04T01:48:09.837Z,95.23
2022-12-04T01:49:09.867Z,95.23
2022-12-04T01:50:09.827Z,95.23
2022-12-04T01:51:09.828Z,95.23
2022-12-04T01:52:09.857Z,95.23
2022-12-04T01:53:09.786Z,95.23
2022-12-04T01:54:09.789Z,95.23
2022-12-04T01:55:09.769Z,95.13
2022-12-04T01:56:09.765Z,95.13
2022-12-04T01:57:09.738Z,95.13
2022-12-04T01:58:09.751Z,95.13
2022-12-04T01:59:09.752Z,95.13
2022-12-04T02:00:09.731Z,95.13
2022-12-04T02:01:09.854Z,95.23
2022-12-04T02:02:09.811Z,95.34
2022-12-04T02:03:09.726Z,95.44
2022-12-04T02:04:09.693Z,95.55
2022-12-04T02:05:09.641Z,95.55
2022-12-04T02:06:09.639Z,95.55
2022-12-04T02:07:09.651Z,95.55
2022-12-04T02:08:09.691Z,95.44
2022-12-04T02:09:09.622Z,95.44
2022-12-04T02:10:09.604Z,95.44
2022-12-04T02:11:09.581Z,95.44
2022-12-04T02:12:09.600Z,95.34
2022-12-04T02:13:09.551Z,95.34
2022-12-04T02:14:09.580Z,95.34
2022-12-04T02:15:09.562Z,95.23
2022-12-04T02:16:09.549Z,95.23
2022-12-04T02:17:09.525Z,95.23
2022-12-04T02:18:09.565Z,95.13
2022-12-04T02:19:09.525Z,95.03
2022-12-04T02:20:09.485Z,95.03
2022-12-04T02:21:09.462Z,95.03
2022-12-04T02:22:09.484Z,95.09
2022-12-04T02:23:09.494Z,94.98
2022-12-04T02:24:09.432Z,94.98
2022-12-04T02:25:09.453Z,94.78
2022-12-04T02:26:09.419Z,94.82
2022-12-04T02:27:09.416Z,94.82
2022-12-04T02:28:09.399Z,94.92
2022-12-04T02:29:09.393Z,95.03
2022-12-04T02:30:09.418Z,95.03
2022-12-04T02:31:09.399Z,94.92
2022-12-04T02:32:09.365Z,95.03
2022-12-04T02:33:09.324Z,95.13
2022-12-04T02:34:09.325Z,95.23
2022-12-04T02:35:09.318Z,95.34
2022-12-04T02:36:09.315Z,95.23
2022-12-04T02:37:09.288Z,95.23
2022-12-04T02:38:09.285Z,95.34
2022-12-04T02:39:09.279Z,95.34
2022-12-04T02:40:09.253Z,95.44
2022-12-04T02:41:09.268Z,95.55
2022-12-04T02:42:09.229Z,95.55
2022-12-04T02:43:09.340Z,95.55
2022-12-04T02:44:09.227Z,95.55
2022-12-04T02:45:09.186Z,95.40
2022-12-04T02:46:09.222Z,95.29
2022-12-04T02:47:09.199Z,95.23
2022-12-04T02:48:09.170Z,95.09
2022-12-04T02:49:09.191Z,94.98
2022-12-04T02:50:09.128Z,94.98
2022-12-04T02:51:09.137Z,94.98
2022-12-04T02:52:09.121Z,94.98
2022-12-04T02:53:09.110Z,94.88
2022-12-04T02:54:09.109Z,94.88
2022-12-04T02:55:09.117Z,94.88
2022-12-04T02:56:09.081Z,94.88
2022-12-04T02:57:09.072Z,94.88
2022-12-04T02:58:09.038Z,94.88
2022-12-04T02:59:09.048Z,94.78
2022-12-04T03:00:09.041Z,94.78
2022-12-04T03:01:09.109Z,94.67
2022-12-04T03:02:09.074Z,94.57
2022-12-04T03:03:09.003Z,94.46
2022-12-04T03:04:08.982Z,94.46
2022-12-04T03:05:09.023Z,94.35
2022-12-04T03:06:08.962Z,94.46
2022-12-04T03:07:09.003Z,94.46
2022-12-04T03:08:08.979Z,94.57
2022-12-04T03:09:08.933Z,94.71
2022-12-04T03:10:08.913Z,94.92
2022-12-04T03:11:08.923Z,95.13
2022-12-04T03:12:08.900Z,95.13
2022-12-04T03:13:08.879Z,95.13
2022-12-04T03:14:08.927Z,95.23
2022-12-04T03:15:08.864Z,95.23
2022-12-04T03:16:08.862Z,95.34
2022-12-04T03:17:08.874Z,95.34
2022-12-04T03:18:08.825Z,95.44
2022-12-04T03:19:08.830Z,95.44
2022-12-04T03:20:08.811Z,95.44
2022-12-04T03:21:08.792Z,95.34
2022-12-04T03:22:08.771Z,95.34
2022-12-04T03:23:08.765Z,95.44
2022-12-04T03:24:08.808Z,95.55
2022-12-04T03:25:08.736Z,95.55
2022-12-04T03:26:08.774Z,95.50
2022-12-04T03:27:08.703Z,95.40
2022-12-04T03:28:08.683Z,95.40
2022-12-04T03:29:08.716Z,95.29
2022-12-04T03:30:08.707Z,95.23
2022-12-04T03:31:08.776Z,95.34
2022-12-04T03:32:08.664Z,95.34
2022-12-04T03:33:08.642Z,95.44
2022-12-04T03:34:08.637Z,95.44
2022-12-04T03:35:08.616Z,95.55
2022-12-04T03:36:08.604Z,95.65
2022-12-04T03:37:08.658Z,95.76
2022-12-04T03:38:08.592Z,95.65
2022-12-04T03:39:08.574Z,95.65
2022-12-04T03:40:08.596Z,95.61
2022-12-04T03:41:08.570Z,95.61
2022-12-04T03:42:08.598Z,95.50
2022-12-04T03:43:08.548Z,95.50
2022-12-04T03:44:08.515Z,95.50
2022-12-04T03:45:08.504Z,95.40
2022-12-04T03:46:08.609Z,95.29
2022-12-04T03:47:08.489Z,95.29
2022-12-04T03:48:08.550Z,95.29
2022-12-04T03:49:08.470Z,95.19
2022-12-04T03:50:08.442Z,95.19
2022-12-04T03:51:08.428Z,95.19
2022-12-04T03:52:08.458Z,95.09
2022-12-04T03:53:08.450Z,95.09
2022-12-04T03:54:08.450Z,95.09
2022-12-04T03:55:08.402Z,95.09
2022-12-04T03:56:08.389Z,94.98
2022-12-04T03:57:08.383Z,94.98
2022-12-04T03:58:08.378Z,94.98
2022-12-04T03:59:08.358Z,94.98
2022-12-04T04:00:08.351Z,94.88
2022-12-04T04:01:08.383Z,94.88
2022-12-04T04:02:08.483Z,94.67
2022-12-04T04:03:08.322Z,94.67
2022-12-04T04:04:08.299Z,94.78
2022-12-04T04:05:08.302Z,94.88
2022-12-04T04:06:08.271Z,94.88
2022-12-04T04:07:08.240Z,94.78
2022-12-04T04:08:08.328Z,94.78
2022-12-04T04:09:08.247Z,94.78
2022-12-04T04:10:08.253Z,94.67
2022-12-04T04:11:08.243Z,94.67
2022-12-04T04:12:08.212Z,94.78
2022-12-04T04:13:08.187Z,94.78
2022-12-04T04:14:08.179Z,94.78
2022-12-04T04:15:08.168Z,94.78
2022-12-04T04:16:08.254Z,94.78
2022-12-04T04:17:08.131Z,94.78
2022-12-04T04:18:08.115Z,94.98
2022-12-04T04:19:08.150Z,94.98
2022-12-04T04:20:08.104Z,95.09
2022-12-04T04:21:08.115Z,95.29
2022-12-04T04:22:08.071Z,95.40
2022-12-04T04:23:08.096Z,95.50
2022-12-04T04:24:08.065Z,95.50
2022-12-04T04:25:08.072Z,95.61
2022-12-04T04:26:08.056Z,95.72
2022-12-04T04:27:08.054Z,95.72
2022-12-04T04:28:08.035Z,95.72
2022-12-04T04:29:08.006Z,95.72
2022-12-04T04:30:07.997Z,95.61
2022-12-04T04:31:08.009Z,95.50
2022-12-04T04:32:07.956Z,95.50
2022-12-04T04:33:07.998Z,95.40
2022-12-04T04:34:07.934Z,95.29
2022-12-04T04:35:07.927Z,95.19
2022-12-04T04:36:07.958Z,95.09
2022-12-04T04:37:07.894Z,95.19
2022-12-04T04:38:07.893Z,95.19
2022-12-04T04:39:07.893Z,95.19
2022-12-04T04:40:07.864Z,95.29
2022-12-04T04:41:07.917Z,95.29
2022-12-04T04:42:07.844Z,95.40
2022-12-04T04:43:07.831Z,95.50
2022-12-04T04:44:07.845Z,95.61
2022-12-04T04:45:07.819Z,95.61
2022-12-04T04:46:07.858Z,95.61
2022-12-04T04:47:07.829Z,95.61
2022-12-04T04:48:07.776Z,95.50
2022-12-04T04:49:07.785Z,95.40
2022-12-04T04:50:07.778Z,95.40
2022-12-04T04:51:07.751Z,95.40
2022-12-04T04:52:07.755Z,95.29
2022-12-04T04:53:07.749Z,95.29
2022-12-04T04:54:07.699Z,95.29
2022-12-04T04:55:07.700Z,95.29
2022-12-04T04:56:07.724Z,95.29
2022-12-04T04:57:07.687Z,95.29
2022-12-04T04:58:07.696Z,95.19
2022-12-04T04:59:07.644Z,95.19
2022-12-04T05:00:07.672Z,95.19
2022-12-04T05:01:07.623Z,95.19
2022-12-04T05:02:07.680Z,95.19
2022-12-04T05:03:07.641Z,95.09
2022-12-04T05:04:07.630Z,95.09
2022-12-04T05:05:07.588Z,95.09
2022-12-04T05:06:07.590Z,95.09
2022-12-04T05:07:07.562Z,95.19
2022-12-04T05:08:07.653Z,95.19
2022-12-04T05:09:07.531Z,95.09
2022-12-04T05:10:07.558Z,95.04
2022-12-04T05:11:07.520Z,94.94
2022-12-04T05:12:07.505Z,94.94
2022-12-04T05:13:07.493Z,94.84
2022-12-04T05:14:07.483Z,94.94
2022-12-04T05:15:07.482Z,94.84
2022-12-04T05:16:07.502Z,94.84
2022-12-04T05:17:12.289Z,94.84
2022-12-04T05:18:08.446Z,94.73
2022-12-04T05:19:07.421Z,94.73
2022-12-04T05:20:07.402Z,94.63
2022-12-04T05:21:07.440Z,94.63
2022-12-04T05:22:07.394Z,94.63
2022-12-04T05:23:07.383Z,94.63
2022-12-04T05:24:07.364Z,94.73
2022-12-04T05:25:07.350Z,94.73
2022-12-04T05:26:07.371Z,94.73
2022-12-04T05:27:07.355Z,94.73
2022-12-04T05:28:07.361Z,94.73
2022-12-04T05:29:07.308Z,94.63
2022-12-04T05:30:07.296Z,94.52
2022-12-04T05:31:07.394Z,94.52
2022-12-04T05:32:07.283Z,94.52
2022-12-04T05:33:07.281Z,94.42
2022-12-04T05:34:07.257Z,94.42
2022-12-04T05:35:11.016Z,94.42
2022-12-04T05:36:07.243Z,94.42
2022-12-04T05:37:07.217Z,94.52
2022-12-04T05:38:07.228Z,94.52
2022-12-04T05:39:07.203Z,94.52
2022-12-04T05:40:07.187Z,94.52
2022-12-04T05:41:07.170Z,94.52
2022-12-04T05:42:07.168Z,94.52
2022-12-04T05:43:07.155Z,94.42
2022-12-04T05:44:07.179Z,94.42
2022-12-04T05:45:07.126Z,94.31
2022-12-04T05:46:07.114Z,94.31
2022-12-04T05:47:07.218Z,94.42
2022-12-04T05:48:07.119Z,94.57
2022-12-04T05:49:07.068Z,94.67
2022-12-04T05:50:07.075Z,94.78
2022-12-04T05:51:07.068Z,94.78
2022-12-04T05:52:07.041Z,94.88
2022-12-04T05:53:07.024Z,94.88
2022-12-04T05:54:07.010Z,94.88
2022-12-04T05:55:07.029Z,95.09
2022-12-04T05:56:07.017Z,95.09
2022-12-04T05:57:06.990Z,95.09
2022-12-04T05:58:06.968Z,94.98
2022-12-04T05:59:06.957Z,94.88
2022-12-04T06:00:06.980Z,94.98
2022-12-04T06:01:06.979Z,94.98
2022-12-04T06:02:06.998Z,95.09
2022-12-04T06:03:06.976Z,95.19
2022-12-04T06:04:06.889Z,95.19
2022-12-04T06:05:06.933Z,95.19
2022-12-04T06:06:06.913Z,95.19
2022-12-04T06:07:06.950Z,95.09
2022-12-04T06:08:06.947Z,95.04
2022-12-04T06:09:06.881Z,94.94
2022-12-04T06:10:06.856Z,94.94
2022-12-04T06:11:06.865Z,94.94
2022-12-04T06:12:06.832Z,94.94
2022-12-04T06:13:06.835Z,94.73
2022-12-04T06:14:06.803Z,94.63
2022-12-04T06:15:06.802Z,94.63
2022-12-04T06:16:06.811Z,94.63
2022-12-04T06:17:06.763Z,94.73
2022-12-04T06:18:06.790Z,94.63
2022-12-04T06:19:06.760Z,94.63
2022-12-04T06:20:11.432Z,94.63
2022-12-04T06:21:07.722Z,94.52
2022-12-04T06:22:06.701Z,94.52
2022-12-04T06:23:06.755Z,94.42
2022-12-04T06:24:06.679Z,94.52
2022-12-04T06:25:06.670Z,94.52
2022-12-04T06:26:07.346Z,94.52
2022-12-04T06:28:07.735Z,94.42
2022-12-04T06:29:06.632Z,94.42
2022-12-04T06:30:06.645Z,94.42
2022-12-04T06:31:06.627Z,94.52
2022-12-04T06:32:06.677Z,94.52
2022-12-04T06:33:06.605Z,94.63
2022-12-04T06:34:06.601Z,94.63
2022-12-04T06:35:06.542Z,94.63
2022-12-04T06:36:06.550Z,94.63
2022-12-04T06:37:06.546Z,94.52
2022-12-04T06:38:06.548Z,94.42
2022-12-04T06:39:06.508Z,94.42
2022-12-04T06:40:06.529Z,94.42
2022-12-04T06:41:06.519Z,94.52
2022-12-04T06:42:06.476Z,94.63
2022-12-04T06:43:06.473Z,94.63
2022-12-04T06:44:06.454Z,94.73
2022-12-04T06:45:06.556Z,94.73
2022-12-04T06:46:06.537Z,94.73
2022-12-04T06:47:06.418Z,94.73
2022-12-04T06:48:06.438Z,94.73
2022-12-04T06:49:06.445Z,94.73
2022-12-04T06:50:06.411Z,94.73
2022-12-04T06:51:06.433Z,94.73
2022-12-04T06:52:06.427Z,94.73
2022-12-04T06:53:08.446Z,94.73
2022-12-04T06:54:06.325Z,94.63
2022-12-04T06:55:06.336Z,94.52
2022-12-04T06:56:06.345Z,94.42
2022-12-04T06:57:06.330Z,94.42
2022-12-04T06:58:06.318Z,94.31
2022-12-04T06:59:06.268Z,94.42
2022-12-04T07:00:06.265Z,94.42
2022-12-04T07:01:06.306Z,94.42
2022-12-04T07:02:06.315Z,94.42
2022-12-04T07:03:06.293Z,94.42
2022-12-04T07:04:06.231Z,94.42
2022-12-04T07:05:06.211Z,94.42
2022-12-04T07:06:06.241Z,94.42
2022-12-04T07:07:06.212Z,94.42
2022-12-04T07:08:06.228Z,94.52
2022-12-04T07:09:06.195Z,94.52
2022-12-04T07:10:06.172Z,94.42
2022-12-04T07:11:06.144Z,94.42
2022-12-04T07:12:06.129Z,94.31
2022-12-04T07:13:06.120Z,94.31
2022-12-04T07:14:06.158Z,94.31
2022-12-04T07:15:06.090Z,94.31
2022-12-04T07:16:06.164Z,94.21
2022-12-04T07:17:06.193Z,94.10
2022-12-04T07:18:06.065Z,94.10
2022-12-04T07:19:06.038Z,94.21
2022-12-04T07:20:06.092Z,94.21
2022-12-04T07:21:06.029Z,94.21
2022-12-04T07:22:06.028Z,94.21
2022-12-04T07:23:07.471Z,94.21
2022-12-04T07:24:06.043Z,94.21
2022-12-04T07:25:05.974Z,94.21
2022-12-04T07:26:05.982Z,94.21
2022-12-04T07:27:05.965Z,94.10
2022-12-04T07:28:05.974Z,94.10
2022-12-04T07:29:05.931Z,94.10
2022-12-04T07:30:07.856Z,94.06
2022-12-04T07:31:06.957Z,93.85
2022-12-04T07:32:06.015Z,93.85
2022-12-04T07:33:05.909Z,93.75
2022-12-04T07:34:05.904Z,93.75
2022-12-04T07:35:05.863Z,93.90
2022-12-04T07:36:05.866Z,93.90
2022-12-04T07:37:05.874Z,94.00
2022-12-04T07:38:05.834Z,94.10
2022-12-04T07:39:05.833Z,94.21
2022-12-04T07:40:05.801Z,94.31
2022-12-04T07:41:05.824Z,94.52
2022-12-04T07:42:05.786Z,94.63
2022-12-04T07:43:05.799Z,94.73
2022-12-04T07:44:05.788Z,94.84
2022-12-04T07:45:05.734Z,94.84
2022-12-04T07:46:05.774Z,94.84
2022-12-04T07:47:05.757Z,94.73
2022-12-04T07:48:05.721Z,94.73
2022-12-04T07:49:05.714Z,94.73
2022-12-04T07:50:05.698Z,94.63
2022-12-04T07:51:05.705Z,94.58
2022-12-04T07:52:05.699Z,94.48
2022-12-04T07:53:05.685Z,94.37
2022-12-04T07:54:05.646Z,94.27
2022-12-04T07:55:05.659Z,94.27
2022-12-04T07:56:05.648Z,94.27
2022-12-04T07:57:05.618Z,94.27
2022-12-04T07:58:05.606Z,94.17
2022-12-04T07:59:05.620Z,94.17
2022-12-04T08:00:05.582Z,94.27
2022-12-04T08:01:05.681Z,94.27
2022-12-04T08:02:05.581Z,94.31
2022-12-04T08:03:05.561Z,94.42
2022-12-04T08:04:05.575Z,94.52
2022-12-04T08:05:05.519Z,94.48
2022-12-04T08:06:05.521Z,94.58
2022-12-04T08:07:05.538Z,94.58
2022-12-04T08:08:05.607Z,94.58
2022-12-04T08:09:09.856Z,94.48
2022-12-04T08:10:05.471Z,94.27
2022-12-04T08:11:05.582Z,94.17
2022-12-04T08:12:05.472Z,94.17
2022-12-04T08:13:05.478Z,94.06
2022-12-04T08:14:05.408Z,94.06
2022-12-04T08:15:05.402Z,93.96
2022-12-04T08:16:05.404Z,93.85
2022-12-04T08:17:05.474Z,93.96
2022-12-04T08:18:05.368Z,93.96
2022-12-04T08:19:05.344Z,93.85
2022-12-04T08:20:05.418Z,93.85
2022-12-04T08:21:05.330Z,93.75
2022-12-04T08:22:05.370Z,93.60
2022-12-04T08:23:05.330Z,93.60
2022-12-04T08:24:05.323Z,93.60
2022-12-04T08:25:05.303Z,93.50
2022-12-04T08:26:05.272Z,93.40
2022-12-04T08:27:05.260Z,93.40
2022-12-04T08:28:05.298Z,93.29
2022-12-04T08:29:05.236Z,93.29
2022-12-04T08:30:05.245Z,93.29
2022-12-04T08:31:05.335Z,93.18
2022-12-04T08:32:05.212Z,93.18
2022-12-04T08:33:05.226Z,93.08
2022-12-04T08:34:05.203Z,92.97
2022-12-04T08:35:05.186Z,92.97
2022-12-04T08:36:05.177Z,93.08
2022-12-04T08:37:05.201Z,93.18
2022-12-04T08:38:05.145Z,93.18
2022-12-04T08:39:05.140Z,93.12
2022-12-04T08:40:05.171Z,93.33
2022-12-04T08:41:05.106Z,93.65
2022-12-04T08:42:05.118Z,93.75
2022-12-04T08:43:05.104Z,93.85
2022-12-04T08:44:05.114Z,93.96
2022-12-04T08:45:05.068Z,93.96
2022-12-04T08:46:05.104Z,93.96
2022-12-04T08:47:05.069Z,93.96
2022-12-04T08:48:05.038Z,93.85
2022-12-04T08:49:05.043Z,93.75
2022-12-04T08:50:04.994Z,93.75
2022-12-04T08:51:05.017Z,93.75
2022-12-04T08:52:04.974Z,93.85
2022-12-04T08:53:04.969Z,93.96
2022-12-04T08:54:04.958Z,94.17
2022-12-04T08:55:04.978Z,94.27
2022-12-04T08:56:04.946Z,94.37
2022-12-04T08:57:04.912Z,94.37
2022-12-04T08:58:04.917Z,94.17
2022-12-04T08:59:04.913Z,94.17
2022-12-04T09:00:04.926Z,94.37
2022-12-04T09:01:04.962Z,94.48
2022-12-04T09:02:04.984Z,94.58
2022-12-04T09:03:04.874Z,94.48
2022-12-04T09:04:04.923Z,94.48
2022-12-04T09:05:04.828Z,94.58
2022-12-04T09:06:04.842Z,94.58
2022-12-04T09:07:04.841Z,94.58
2022-12-04T09:08:04.849Z,94.48
2022-12-04T09:09:04.810Z,94.58
2022-12-04T09:10:04.789Z,94.58
2022-12-04T09:11:04.793Z,94.69
2022-12-04T09:12:04.739Z,94.79
2022-12-04T09:13:04.741Z,94.90
2022-12-04T09:14:04.719Z,95.00
2022-12-04T09:15:04.759Z,94.90
2022-12-04T09:16:04.777Z,94.79
2022-12-04T09:17:04.693Z,94.79
2022-12-04T09:18:04.678Z,95.04
2022-12-04T09:19:04.676Z,95.15
2022-12-04T09:20:05.089Z,95.25
2022-12-04T09:21:04.674Z,95.36
2022-12-04T09:22:04.644Z,95.42
2022-12-04T09:23:05.461Z,95.42
2022-12-04T09:24:04.604Z,95.31
2022-12-04T09:25:04.620Z,95.21
2022-12-04T09:26:04.594Z,95.21
2022-12-04T09:27:05.917Z,95.21
2022-12-04T09:28:04.581Z,95.10
2022-12-04T09:29:04.593Z,95.21
2022-12-04T09:30:04.556Z,95.21
2022-12-04T09:31:04.610Z,95.21
2022-12-04T09:32:04.531Z,95.10
2022-12-04T09:33:04.535Z,95.10
2022-12-04T09:34:04.492Z,95.10
2022-12-04T09:35:04.515Z,95.10
2022-12-04T09:36:04.506Z,95.10
2022-12-04T09:37:04.463Z,95.00
2022-12-04T09:38:04.464Z,95.00
2022-12-04T09:39:04.446Z,94.90
2022-12-04T09:40:04.435Z,94.79
2022-12-04T09:41:04.447Z,94.69
2022-12-04T09:42:04.423Z,94.69
2022-12-04T09:43:04.384Z,94.79
2022-12-04T09:44:04.377Z,94.79
2022-12-04T09:45:04.377Z,94.69
2022-12-04T09:46:04.502Z,94.58
2022-12-04T09:47:04.539Z,94.58
2022-12-04T09:48:04.347Z,94.58
2022-12-04T09:49:04.333Z,94.58
2022-12-04T09:50:04.316Z,94.58
2022-12-04T09:51:04.312Z,94.48
2022-12-04T09:52:04.335Z,94.37
2022-12-04T09:53:04.288Z,94.37
2022-12-04T09:54:04.267Z,94.48
2022-12-04T09:55:04.254Z,94.69
2022-12-04T09:56:04.280Z,94.79
2022-12-04T09:57:04.245Z,95.00
2022-12-04T09:58:04.235Z,95.10
2022-12-04T09:59:04.227Z,95.21
2022-12-04T10:00:04.209Z,95.21
2022-12-04T10:01:04.199Z,95.10
2022-12-04T10:02:04.224Z,94.96
2022-12-04T10:03:04.294Z,94.85
2022-12-04T10:04:06.281Z,94.64
2022-12-04T10:05:04.127Z,94.33
2022-12-04T10:06:04.132Z,94.37
2022-12-04T10:07:04.127Z,94.48
2022-12-04T10:08:04.156Z,94.58
2022-12-04T10:09:04.081Z,94.64
2022-12-04T10:10:04.098Z,94.64
2022-12-04T10:11:04.057Z,94.54
2022-12-04T10:12:04.091Z,94.43
2022-12-04T10:13:04.079Z,94.33
2022-12-04T10:14:04.025Z,94.33
2022-12-04T10:15:04.052Z,94.33
2022-12-04T10:16:04.102Z,94.17
2022-12-04T10:17:04.002Z,94.37
2022-12-04T10:18:03.978Z,94.69
2022-12-04T10:19:03.971Z,94.90
2022-12-04T10:20:04.018Z,95.00
2022-12-04T10:21:03.970Z,95.10
2022-12-04T10:22:03.943Z,95.21
2022-12-04T10:23:03.951Z,95.31
2022-12-04T10:24:03.927Z,95.31
2022-12-04T10:25:03.913Z,95.17
2022-12-04T10:26:03.925Z,95.06
2022-12-04T10:27:03.891Z,94.75
2022-12-04T10:28:03.955Z,94.64
2022-12-04T10:29:03.878Z,94.43
2022-12-04T10:30:03.854Z,94.33
2022-12-04T10:31:03.921Z,94.33
2022-12-04T10:32:03.812Z,94.33
2022-12-04T10:33:04.716Z,94.43
2022-12-04T10:34:03.816Z,94.33
2022-12-04T10:35:03.782Z,94.43
2022-12-04T10:36:03.786Z,94.48
2022-12-04T10:37:03.791Z,94.54
2022-12-04T10:38:03.806Z,94.58
2022-12-04T10:39:03.756Z,94.64
2022-12-04T10:40:03.736Z,94.64
2022-12-04T10:41:03.727Z,94.64
2022-12-04T10:42:03.726Z,94.54
2022-12-04T10:43:03.714Z,94.54
2022-12-04T10:44:03.738Z,94.58
2022-12-04T10:45:03.707Z,94.69
2022-12-04T10:46:03.706Z,94.79
2022-12-04T10:47:03.700Z,95.00
2022-12-04T10:48:03.667Z,95.10
2022-12-04T10:49:03.644Z,95.31
2022-12-04T10:50:03.645Z,95.42
2022-12-04T10:51:03.620Z,95.42
2022-12-04T10:52:03.596Z,95.42
2022-12-04T10:53:03.728Z,95.42
2022-12-04T10:54:03.558Z,95.31
2022-12-04T10:55:03.556Z,95.31
2022-12-04T10:56:03.575Z,95.31
2022-12-04T10:57:03.538Z,95.42
2022-12-04T10:58:03.543Z,95.42
2022-12-04T10:59:03.532Z,95.42
2022-12-04T11:00:03.511Z,95.42
2022-12-04T11:01:03.515Z,95.62
2022-12-04T11:02:06.888Z,95.73
2022-12-04T11:03:03.547Z,95.73
2022-12-04T11:04:03.483Z,95.73
2022-12-04T11:05:03.466Z,95.73
2022-12-04T11:06:03.458Z,95.73
2022-12-04T11:07:03.513Z,95.73
2022-12-04T11:08:03.535Z,95.62
2022-12-04T11:09:03.403Z,95.58
2022-12-04T11:10:03.401Z,95.37
2022-12-04T11:11:03.387Z,95.37
2022-12-04T11:12:03.371Z,95.17
2022-12-04T11:13:03.341Z,94.96
2022-12-04T11:14:03.400Z,94.54
2022-12-04T11:15:03.331Z,94.69
2022-12-04T11:16:03.406Z,94.90
2022-12-04T11:17:03.300Z,95.10
2022-12-04T11:18:03.296Z,95.10
2022-12-04T11:19:03.291Z,95.31
2022-12-04T11:20:03.289Z,95.42
2022-12-04T11:21:03.291Z,95.62
2022-12-04T11:22:03.242Z,95.62
2022-12-04T11:23:03.245Z,95.62
2022-12-04T11:24:03.241Z,95.62
2022-12-04T11:25:03.241Z,95.42
2022-12-04T11:26:06.116Z,95.31
2022-12-04T11:27:03.224Z,95.31
2022-12-04T11:28:03.180Z,95.42
2022-12-04T11:29:03.160Z,95.42
2022-12-04T11:30:03.164Z,95.52
2022-12-04T11:31:03.210Z,95.62
2022-12-04T11:32:07.459Z,95.73
2022-12-04T11:33:03.136Z,95.83
2022-12-04T11:34:03.121Z,95.83
2022-12-04T11:35:03.154Z,95.83
2022-12-04T11:36:03.097Z,95.94
2022-12-04T11:37:03.072Z,96.04
2022-12-04T11:38:03.076Z,96.15
2022-12-04T11:39:03.091Z,96.15
2022-12-04T11:40:03.051Z,96.15
2022-12-04T11:41:03.077Z,96.04
2022-12-04T11:42:03.033Z,95.94
2022-12-04T11:43:03.016Z,95.94
2022-12-04T11:44:03.034Z,95.94
2022-12-04T11:45:03.002Z,96.04
2022-12-04T11:46:03.006Z,96.15
2022-12-04T11:47:02.982Z,96.15
2022-12-04T11:48:02.951Z,96.15
2022-12-04T11:49:02.965Z,96.25
2022-12-04T11:50:02.976Z,96.25
2022-12-04T11:51:02.933Z,96.25
2022-12-04T11:52:02.896Z,96.15
2022-12-04T11:53:02.887Z,96.15
2022-12-04T11:54:02.907Z,96.15
2022-12-04T11:55:02.856Z,96.15
2022-12-04T11:56:02.876Z,96.04
2022-12-04T11:57:02.836Z,96.04
2022-12-04T11:58:02.854Z,96.04
2022-12-04T11:59:02.860Z,96.04
2022-12-04T12:00:02.818Z,96.04
2022-12-04T12:01:02.832Z,96.04
2022-12-04T12:02:02.940Z,96.04
2022-12-04T12:03:02.829Z,96.25
2022-12-04T12:04:02.763Z,96.36
2022-12-04T12:05:02.780Z,96.50
2022-12-04T12:06:02.757Z,96.61
2022-12-04T12:07:02.736Z,96.71
2022-12-04T12:08:03.368Z,96.71
2022-12-04T12:09:02.712Z,96.82
2022-12-04T12:10:02.700Z,97.03
2022-12-04T12:11:02.711Z,97.03
2022-12-04T12:12:02.703Z,97.13
2022-12-04T12:13:02.680Z,97.13
2022-12-04T12:14:02.662Z,97.24
2022-12-04T12:15:02.628Z,97.24
2022-12-04T12:16:02.713Z,97.13
2022-12-04T12:17:02.680Z,97.03
2022-12-04T12:18:02.643Z,97.03
2022-12-04T12:19:02.579Z,97.13
2022-12-04T12:20:02.589Z,97.24
2022-12-04T12:21:02.607Z,97.24
2022-12-04T12:22:05.350Z,97.34
2022-12-04T12:23:02.573Z,97.24
2022-12-04T12:24:02.589Z,97.24
2022-12-04T12:25:02.523Z,97.34
2022-12-04T12:26:02.535Z,97.24
2022-12-04T12:27:02.511Z,97.13
2022-12-04T12:28:02.502Z,97.24
2022-12-04T12:29:02.504Z,97.24
2022-12-04T12:30:02.495Z,97.34
2022-12-04T12:32:03.535Z,97.24
2022-12-04T12:33:02.435Z,97.34
2022-12-04T12:34:02.459Z,97.34
2022-12-04T12:35:02.455Z,97.34
2022-12-04T12:36:02.382Z,97.34
2022-12-04T12:37:02.412Z,97.44
2022-12-04T12:38:02.375Z,97.34
2022-12-04T12:39:02.359Z,97.34
2022-12-04T12:40:02.364Z,97.34
2022-12-04T12:41:02.323Z,97.34
2022-12-04T12:42:02.313Z,97.34
2022-12-04T12:43:02.398Z,97.40
2022-12-04T12:44:02.292Z,97.40
2022-12-04T12:45:02.383Z,97.30
2022-12-04T12:46:02.371Z,97.30
2022-12-04T12:47:02.284Z,97.30
2022-12-04T12:48:02.247Z,97.19
2022-12-04T12:49:02.259Z,97.09
2022-12-04T12:50:02.275Z,97.09
2022-12-04T12:51:28.710Z,96.98
2022-12-04T12:52:03.234Z,96.98
2022-12-04T12:53:02.192Z,96.77
2022-12-04T12:54:02.188Z,96.67